x

East Santa Barbara - 12nm Southwest Of Santa Barbara, Ca (46053) Wave Buoy

3:50am - Mon 26th Jun 2017 All times are PDT. -7 hours from GMT.

  • Sig Wave height 3.6ft
  • Swell Direction
  • Peak Period 6s
  • Average Period 5s
  • Wind
    16mph, 20mph gusts
  • Sea Temp 60°f
  • 空気 Temp 62°f
  • Sea Pressure 1012.1mb
  • East Santa Barbara  - 12nm Southwest Of Santa Barbara, Ca
  • East Santa Barbara  - 12nm Southwest Of Santa Barbara, Ca

More Historic Weather Station data

Upgrade to MSW Pro to gain access to the past 30 days of data for over 8000 Wavebouys and Weather Stations around the globe.

Join Pro

Comparision Forecast

View Surf forecast
   
Mon 06/26 3:50am 3.5ft 6s 5s 16 20 mph 1012.1mb 60f 62f
3:40am  -   -   -  16 18 mph 1012.1mb 60f 62f
3:30am 3.5ft  -  5s 13 16 mph 1012.3mb 60f 62f
3:20am  -   -   -  16 18 mph 1012.3mb 60f 62f
3:10am  -   -   -  16 20 mph 1012mb 60f 62f
3:00am  -   -   -  18 20 mph 1012.1mb 60f 62f
2:50am 3.5ft 6s 4s 16 20 mph 1012mb 60f 62f
2:40am 3.5ft  -  4s 13 18 mph 1012.1mb 60f 62f
2:30am  -   -   -  11 16 mph 1012.3mb 60f 62f
2:20am  -   -   -  16 20 mph 1012.1mb 60f 62f
2:10am  -   -   -  16 20 mph 1012mb 60f 62f
2:00am  -   -   -  11 18 mph 1012.5mb 60f 62f
1:50am 4ft 6s 5s 18 20 mph 1012.3mb 60f 62f
1:40am 4ft  -  5s 13 18 mph 1012.3mb 60f 62f
1:30am  -   -   -  9 16 mph 1012.5mb 60f 62f
1:20am  -   -   -  13 18 mph 1012.1mb 60f 63f
1:10am  -   -   -  13 16 mph 1012.3mb 60f 62f
1:00am  -   -   -  16 20 mph 1012.1mb 60f 63f
12:50am 4.5ft 6s 5s 13 16 mph 1012.4mb 60f 62f
12:40am 4.5ft  -  5s 13 20 mph 1012.5mb 60f 62f
12:30am  -   -   -  16 20 mph 1012.4mb 60f 62f
12:20am  -   -   -  16 20 mph 1012.4mb 60f 63f
12:10am  -   -   -  16 20 mph 1012.5mb 60f 63f
12:00am  -   -   -  16 20 mph 1012.3mb 60f 63f
Sun 06/25 11:50pm 4.5ft 6s 5s 16 22 mph 1012.5mb 61f 64f
11:40pm  -   -   -  16 20 mph 1012.5mb 61f 63f
11:30pm  -   -   -  13 18 mph 1012.9mb 61f 62f
11:20pm  -   -   -  16 20 mph 1012.8mb 61f 63f
11:10pm  -   -   -  13 22 mph 1012.5mb 61f 63f
11:00pm  -   -   -  9 16 mph 1012.8mb 61f 63f
10:50pm 4.5ft 6s 5s 16 20 mph 1012.3mb 61f 64f
10:40pm 4.5ft  -  5s 16 18 mph 1012.3mb 61f 63f
10:30pm  -   -   -  11 18 mph 1012.3mb 61f 63f
10:20pm  -   -   -  11 16 mph 1012.5mb 61f 62f
10:10pm  -   -   -  13 18 mph 1012.5mb 61f 62f
10:00pm  -   -   -  16 20 mph 1012.5mb 61f 62f
9:50pm 5ft 6s 5s 20 25 mph 1012.4mb 61f 63f
9:40pm  -   -   -  18 29 mph 1012mb 61f 63f
9:30pm  -   -   -  18 22 mph 1012.3mb 61f 61f
9:20pm  -   -   -  18 22 mph 1012.3mb 61f 62f
9:10pm  -   -   -  18 22 mph 1012mb 61f 62f
9:00pm  -   -   -  18 22 mph 1012mb 61f 62f
8:50pm 5ft 6s 5s 18 25 mph 1012mb 61f 61f
8:40pm  -   -   -  18 20 mph 1012mb 61f 62f
8:30pm  -   -   -  18 22 mph 1012mb 61f 62f
8:20pm  -   -   -  18 20 mph 1012mb 61f 62f
8:10pm  -   -   -  20 25 mph 1012mb 61f 62f
8:00pm  -   -   -  22 27 mph 1011.8mb 61f 62f
7:50pm 5ft 6s 5s 22 27 mph 1011.6mb 61f 62f
7:40pm  -   -   -  20 27 mph 1011.9mb 61f 62f
7:30pm  -   -   -  20 25 mph 1011.8mb 61f 62f
7:20pm  -   -   -  20 25 mph 1011.8mb 61f 61f
7:10pm  -   -   -  20 25 mph 1012mb 61f 62f
7:00pm  -   -   -  20 25 mph 1011.8mb 61f 62f
6:50pm 5ft 6s 5s 20 25 mph 1011.5mb 61f 62f
6:40pm  -   -   -  18 22 mph 1011.8mb 61f 62f
6:30pm  -   -   -  20 22 mph 1011.8mb 61f 62f
6:20pm  -   -   -  16 22 mph 1012mb 61f 62f
6:10pm  -   -   -  11 16 mph 1012mb 61f 62f
6:00pm  -   -   -  18 22 mph 1012mb 61f 61f
5:50pm 5ft 6s 5s 22 27 mph 1012mb 61f 61f
5:40pm 5ft  -  5s 18 27 mph 1011.8mb 61f 61f
5:30pm  -   -   -  13 22 mph 1012.3mb 61f 61f
5:20pm  -   -   -  22 27 mph 1012mb 61f 61f
5:10pm  -   -   -  16 27 mph 1011.9mb 61f 61f
5:00pm  -   -   -  13 18 mph 1012.4mb 61f 61f
4:50pm 5ft 6s 5s 18 22 mph 1012.5mb 61f 61f
4:40pm 5ft  -  5s 16 20 mph 1012.4mb 61f 61f
4:30pm  -   -   -  18 22 mph 1012.5mb 61f 61f
4:20pm  -   -   -  13 18 mph 1012.6mb 61f 61f
4:10pm  -   -   -  16 20 mph 1012.9mb 61f 61f
4:00pm  -   -   -  16 18 mph 1013mb - 61f
3:50pm 4.5ft 6s 5s 16 18 mph 1013mb 61f 61f
3:40pm  -   -   -  13 18 mph 1013.3mb 61f 61f
3:30pm  -   -   -  13 18 mph 1013.4mb 61f 61f
3:20pm  -   -   -  13 18 mph 1013.4mb 61f 61f
3:10pm  -   -   -  13 16 mph 1013.5mb 61f 61f
3:00pm  -   -   -  13 18 mph 1013.5mb 61f 61f
2:50pm 3.5ft 6s 5s 16 18 mph 1013.6mb 61f 61f
2:40pm 3.5ft  -  5s 16 18 mph 1013.6mb 61f 61f
2:30pm  -   -   -  16 20 mph 1013.6mb 61f 61f
2:20pm  -   -   -  16 20 mph 1013.6mb 61f 60f
2:10pm  -   -   -  18 20 mph 1013.8mb 61f 61f
2:00pm  -   -   -  16 20 mph 1013.8mb 61f 60f
1:50pm 3.5ft 6s 5s 16 18 mph 1013.9mb 61f 60f
1:40pm 3.5ft  -  5s 13 16 mph 1013.9mb 61f 61f
1:30pm  -   -   -  13 16 mph 1014mb 61f 61f
1:20pm  -   -   -  13 16 mph 1014mb 62f 61f
1:10pm  -   -   -  13 16 mph 1014.1mb 61f 61f
1:00pm  -   -   -  11 16 mph 1014.1mb 61f 61f
12:50pm 3.5ft 5s 5s 11 13 mph 1014.1mb 61f 61f
12:40pm 3.5ft  -  5s 11 13 mph 1014.1mb 62f 61f
12:30pm  -   -   -  9 11 mph 1014.1mb 62f 62f
12:20pm  -   -   -  9 11 mph 1014.1mb 61f 62f
12:10pm  -   -   -  9 11 mph 1014.3mb 61f 62f
12:00pm  -   -   -  9 11 mph 1014.3mb 61f 62f
11:50am 3ft 5s 5s 9 11 mph 1014.1mb 62f 62f
11:40am 3ft  -  5s 7 9 mph 1014.1mb 61f 61f
11:30am  -   -   -  4 9 mph 1014.1mb 61f 61f
11:20am  -   -   -  4 7 mph 1014.3mb 61f 61f
11:10am  -   -   -  7 7 mph 1014.3mb 61f 61f
11:00am  -   -   -  4 7 mph 1014.1mb 61f 60f
10:50am 3.5ft 6s 5s 7 7 mph 1014mb 61f 60f
10:40am 3.5ft  -  5s 7 7 mph 1014mb 61f 60f
10:30am  -   -   -  4 7 mph 1014mb 61f 60f
10:20am  -   -   -  7 7 mph 1014mb 61f 60f
10:10am  -   -   -  7 9 mph 1013.9mb 61f 60f
10:00am  -   -   -  7 11 mph 1013.9mb 61f 60f
9:50am 3.5ft 6s 5s 7 9 mph 1013.9mb 61f 60f
9:40am 3.5ft  -  5s 7 9 mph 1014mb 60f 60f
9:30am  -   -   -   -  2 mph 1014mb 60f 62f
9:20am  -   -   -   -  2 mph 1014mb 60f 62f
9:10am  -   -   -   -  2 mph 1014mb 60f 62f
9:00am  -   -   -   -  2 mph 1014mb 60f 63f
8:50am 3.5ft 5s 5s  -  2 mph 1014mb 60f 62f
8:40am 3.5ft  -  5s  -  4 mph 1013.9mb 60f 62f
8:30am  -   -   -  2 4 mph 1013.9mb 60f 62f
8:20am  -   -   -  2 4 mph 1013.9mb 60f 61f
8:10am  -   -   -  2 4 mph 1013.6mb 60f 61f
8:00am  -   -   -   -  4 mph 1013.6mb 60f 61f
7:50am 3.5ft 6s 5s 2 2 mph 1013.5mb 60f 61f
7:40am 3.5ft  -  5s 2 4 mph 1013.5mb 60f 61f
7:30am  -   -   -  2 2 mph 1013.3mb 60f 61f
7:20am  -   -   -  2 2 mph 1013.1mb 60f 61f
7:10am  -   -   -  2 4 mph 1013.1mb 60f 61f
7:00am  -   -   -  4 4 mph 1013mb 60f 60f
6:50am 3.5ft 6s 5s 4 7 mph 1013mb 60f 60f
6:40am 3.5ft  -  5s 4 7 mph 1013mb 60f 60f
6:30am  -   -   -  7 9 mph 1012.9mb 60f 60f
6:20am  -   -   -  7 9 mph 1012.8mb 60f 60f
6:10am  -   -   -  4 7 mph 1012.8mb 60f 60f
6:00am  -   -   -  4 7 mph 1012.5mb 60f 61f
5:50am 4.5ft 6s 5s 2 4 mph 1012.5mb 60f 61f
5:40am  -   -   -  4 7 mph 1012.3mb 60f 61f
5:30am  -   -   -  7 9 mph 1012.1mb 60f 61f
5:20am  -   -   -  7 9 mph 1012mb 61f 61f
5:10am  -   -   -  7 9 mph 1012mb 61f 61f
5:00am  -   -   -  4 7 mph 1012mb 61f 61f
4:50am 4.5ft 6s 5s 7 7 mph 1012mb 61f 62f
4:40am 4.5ft  -  5s 7 9 mph 1012mb 61f 62f
4:30am  -   -   -  7 9 mph 1011.8mb 61f 62f
4:20am  -   -   -  7 9 mph 1011.6mb 61f 61f
4:10am  -   -   -  4 7 mph 1011.6mb 62f 61f
4:00am  -   -   -  2 7 mph 1011.6mb 62f 61f
3:50am 4.5ft 6s 5s 2 4 mph 1011.5mb 62f 61f
3:40am 4.5ft  -  5s 2 4 mph 1011.4mb 62f 61f
3:30am  -   -   -  2 4 mph 1011.4mb 62f 61f
3:20am  -   -   -  7 9 mph 1011.3mb 62f 60f
3:10am  -   -   -  7 11 mph 1011.3mb 62f 60f
3:00am  -   -   -  7 9 mph 1011.3mb 62f 61f
2:50am 4.5ft 7s 5s 7 9 mph 1011.4mb 62f 61f
2:40am  -   -   -  9 11 mph 1011.4mb 62f 60f
2:30am  -   -   -  9 11 mph 1011.4mb 62f 60f
2:20am  -   -   -  9 11 mph 1011.4mb 62f 60f
2:10am  -   -   -  9 11 mph 1011.4mb 61f 60f
2:00am  -   -   -  9 11 mph 1011.5mb 62f 61f
1:50am 4.5ft 6s 5s 4 9 mph 1011.5mb 62f 62f
1:40am 4.5ft  -  5s 2 4 mph 1011.4mb 61f 62f
1:30am  -   -   -  2 4 mph 1011.4mb 61f 62f
1:20am  -   -   -  2 4 mph 1011.4mb 61f 62f
1:10am  -   -   -  2 4 mph 1011.4mb 61f 62f
1:00am  -   -   -  4 7 mph 1011.3mb 61f 62f
12:50am 4.5ft 6s 5s 4 4 mph 1011.3mb 61f 62f
12:40am 4.5ft  -  5s 4 4 mph 1011.3mb 61f 62f
12:30am  -   -   -  4 4 mph 1011.1mb 61f 62f
12:20am  -   -   -  4 7 mph 1011.1mb 61f 62f
12:10am  -   -   -  4 7 mph 1011.1mb 61f 62f
12:00am  -   -   -  4 7 mph 1011mb 62f 62f
Sat 06/24 11:50pm 4.5ft 7s 5s 4 7 mph 1011mb 61f 62f
11:40pm 4.5ft  -  5s 4 7 mph 1011mb 61f 62f
11:30pm  -   -   -  2 4 mph 1011mb 61f 62f
11:20pm  -   -   -  4 4 mph 1011mb 62f 62f
11:10pm  -   -   -  4 7 mph 1011mb 62f 62f
11:00pm  -   -   -  7 9 mph 1010.9mb 62f 62f
10:50pm 5ft 6s 5s 11 13 mph 1010.9mb 62f 62f
10:40pm  -   -   -  11 16 mph 1010.8mb 62f 62f
10:30pm  -   -   -  13 18 mph 1010.8mb 62f 62f
10:20pm  -   -   -  16 18 mph 1010.9mb 62f 62f
10:10pm  -   -   -  16 20 mph 1010.9mb 62f 62f
10:00pm  -   -   -  16 20 mph 1010.8mb 62f 62f
9:50pm 6ft 6s 5s 16 20 mph 1010.6mb 62f 62f
9:40pm 6ft  -  5s 16 20 mph 1010.6mb 62f 62f
9:30pm  -   -   -  16 20 mph 1010.5mb 62f 61f
9:20pm  -   -   -  16 20 mph 1010.5mb - 61f
9:10pm  -   -   -  18 22 mph 1010.5mb 62f 61f
9:00pm  -   -   -  18 22 mph 1010.5mb 62f 61f
8:50pm 5.5ft 6s 5s 18 22 mph 1010.5mb 62f 61f
8:40pm 5.5ft  -  5s 18 22 mph 1010.5mb 62f 61f
8:30pm  -   -   -  18 22 mph 1010.5mb 62f 61f
8:20pm  -   -   -  20 25 mph 1010.5mb 62f 61f
8:10pm  -   -   -  20 25 mph 1010.5mb 62f 61f
8:00pm  -   -   -  18 25 mph 1010.5mb 62f 62f
7:50pm 5.5ft 6s 5s 18 22 mph 1010.5mb 62f 62f
7:40pm 5.5ft  -  5s 20 25 mph 1010.6mb 62f 62f
7:30pm  -   -   -  20 25 mph 1010.6mb 62f 62f
7:20pm  -   -   -  18 25 mph 1010.5mb 62f 62f
7:10pm  -   -   -  18 22 mph 1010.5mb 62f 62f
7:00pm  -   -   -  18 25 mph 1010.6mb 63f 62f
6:50pm 5ft 6s 5s 18 20 mph 1010.8mb 63f 62f
6:40pm 5ft  -  5s 18 22 mph 1010.8mb 63f 62f
6:30pm  -   -   -  20 22 mph 1010.8mb 63f 62f
6:20pm  -   -   -  20 25 mph 1010.6mb 63f 62f
6:10pm  -   -   -  20 25 mph 1010.6mb 63f 62f
6:00pm  -   -   -  20 25 mph 1010.9mb 63f 62f
5:50pm 5ft  -  5s 20 27 mph 1010.7mb 62f 62f
5:40pm 5ft  -  5s 20 25 mph 1010.9mb 63f 62f
5:30pm  -   -   -  18 22 mph 1011mb 63f 62f
5:20pm  -   -   -  20 25 mph 1011mb 63f 62f
5:10pm  -   -   -  20 25 mph 1011mb 63f 62f
5:00pm  -   -   -  18 25 mph 1011.1mb 63f 62f
4:50pm 5.5ft 6s 5s 18 25 mph 1011.3mb 63f 62f
4:40pm 5.5ft  -  5s 18 22 mph 1011.5mb 63f 62f
4:30pm  -   -   -  18 22 mph 1011.5mb 63f 62f
4:20pm  -   -   -  16 20 mph 1011.8mb 63f 62f
4:10pm  -   -   -  16 20 mph 1011.9mb 63f 62f
4:00pm  -   -   -  16 18 mph 1012.1mb 63f 62f
3:50pm 5ft 6s 5s 13 18 mph 1012.3mb 63f 62f
3:40pm  -   -   -  13 18 mph 1012.5mb 64f 62f
3:30pm  -   -   -  16 20 mph 1012.4mb 64f 62f
3:20pm  -   -   -  16 18 mph 1012.5mb 64f 62f
3:10pm  -   -   -  13 16 mph 1012.6mb 64f 62f
3:00pm  -   -   -  13 18 mph 1012.8mb 64f 62f
2:50pm 4.5ft 6s 5s 13 16 mph 1013mb 64f 62f
2:40pm  -   -   -  16 18 mph 1013mb 64f 61f
2:30pm  -   -   -  16 20 mph 1013mb 64f 61f
2:20pm  -   -   -  16 18 mph 1013.1mb 64f 61f
2:10pm  -   -   -  16 18 mph 1013.3mb 64f 61f
2:00pm  -   -   -  18 20 mph 1013.4mb 64f 61f
1:50pm 4.5ft 5s 5s 18 20 mph 1013.4mb 64f 61f
1:40pm 4.5ft  -  5s 18 22 mph 1013.4mb 64f 61f
1:30pm  -   -   -  20 22 mph 1013.1mb 64f 61f
1:20pm  -   -   -  20 25 mph 1013.1mb 64f 61f
1:10pm  -   -   -  18 22 mph 1013.1mb 64f 61f
1:00pm  -   -   -  18 20 mph 1013.1mb 64f 61f
12:50pm 3.5ft 5s 5s 16 20 mph 1013.1mb 64f 62f
12:40pm 3.5ft  -  5s 16 18 mph 1013mb 64f 62f
12:30pm  -   -   -  11 16 mph 1013mb 64f 62f
12:20pm  -   -   -  9 11 mph 1013.1mb 64f 62f
12:10pm  -   -   -  7 9 mph 1013.1mb 64f 62f
12:00pm  -   -   -  4 7 mph 1013.1mb 64f 62f
11:50am 3ft 5s 5s 4 7 mph 1013.1mb 64f 61f
11:40am 3ft  -  5s 9 11 mph 1013.3mb 64f 62f
11:30am  -   -   -  11 13 mph 1013.3mb 64f 61f
11:20am  -   -   -  11 11 mph 1013.4mb 64f 61f
11:10am  -   -   -  9 11 mph 1013.4mb 64f 61f
11:00am  -   -   -  9 11 mph 1013.3mb 64f 61f
10:50am 2.5ft 5s 5s 4 7 mph 1013.5mb 64f 61f
10:40am  -   -   -  4 7 mph 1013.6mb 63f 61f
10:30am  -   -   -  2 4 mph 1013.6mb 63f 61f
10:20am  -   -   -  4 7 mph 1013.6mb 63f 61f
10:10am  -   -   -  2 4 mph 1013.6mb 63f 61f
10:00am  -   -   -  2 2 mph 1013.6mb 63f 61f
9:50am 2.5ft 7s 5s 2 2 mph 1013.6mb 63f 61f
9:40am 2.5ft  -  5s 4 7 mph 1013.5mb 63f 61f
9:30am  -   -   -  2 7 mph 1013.6mb 63f 62f
9:20am  -   -   -  2 4 mph 1013.5mb 63f 61f
9:10am  -   -   -  4 7 mph 1013.5mb 63f 61f
9:00am  -   -   -  4 7 mph 1013.5mb 63f 61f
8:50am 2.5ft 8s 5s 7 7 mph 1013.4mb 63f 61f
8:40am 2.5ft  -  5s 7 7 mph 1013.5mb 62f 61f
8:30am  -   -   -  7 11 mph 1013mb 62f 60f
8:20am  -   -   -  7 9 mph 1013.1mb 62f 60f
8:10am  -   -   -  4 9 mph 1013.1mb 62f 61f
8:00am  -   -   -  4 7 mph 1013mb 62f 61f
7:50am 2.5ft 5s 5s 4 9 mph 1013mb 62f 60f
7:40am 2.5ft  -  5s 9 16 mph 1013.1mb 62f 60f
7:30am  -   -   -  7 11 mph 1011.9mb 62f 60f
7:20am  -   -   -  7 11 mph 1012.5mb 62f 60f
7:10am  -   -   -  4 9 mph 1013mb 62f 60f
7:00am  -   -   -  7 13 mph 1013.3mb 62f 60f
6:50am 3ft 10s 5s 4 9 mph 1012.5mb 62f 59f
6:40am 3ft  -  5s 4 7 mph 1012.5mb 62f 59f
6:30am  -   -   -  4 7 mph 1013.1mb 62f 59f
6:20am  -   -   -  4 4 mph 1013mb - 59f
6:10am  -   -   -  2 9 mph 1013.4mb 62f 60f
6:00am  -   -   -   -  4 mph 1013.4mb 62f 59f
5:50am 3.5ft 5s 5s 4 9 mph 1013mb 62f 59f
5:40am 3.5ft  -  5s 4 9 mph 1012.5mb 62f 59f
5:30am  -   -   -   -  4 mph 1013mb 62f 59f
5:20am  -   -   -  2 4 mph 1012.8mb 62f 59f
5:10am  -   -   -  4 7 mph 1013mb 62f 59f
5:00am  -   -   -  7 9 mph 1012.8mb 62f 59f
4:50am 3.5ft 9s 5s 7 9 mph 1012.9mb 62f 60f
4:40am  -   -   -  7 9 mph 1012.6mb 62f 60f
4:30am  -   -   -  7 11 mph 1012.8mb 62f 60f
4:20am  -   -   -  7 9 mph 1012.8mb 62f 60f
4:10am  -   -   -  4 9 mph 1012.4mb 62f 60f
4:00am  -   -   -  9 11 mph 1012.5mb 62f 60f
3:50am 3.5ft 9s 5s 9 13 mph 1012.1mb 62f 60f
3:40am 3.5ft  -  5s 11 13 mph 1012.4mb 62f 61f
3:30am  -   -   -  9 13 mph 1012mb 62f 61f
3:20am  -   -   -  11 13 mph 1012.3mb 62f 60f
3:10am  -   -   -  11 13 mph 1012.5mb 62f 59f
3:00am  -   -   -  13 18 mph 1012.8mb 62f 59f
2:50am 4ft 10s 5s 16 18 mph 1013mb 62f 59f
2:40am 4ft  -  5s 16 18 mph 1013.3mb 62f 59f
2:30am  -   -   -  16 20 mph 1013.3mb 62f 59f
2:20am  -   -   -  16 18 mph 1013.4mb 62f 59f
2:10am  -   -   -  16 18 mph 1013.5mb 62f 59f
2:00am  -   -   -  16 18 mph 1013.6mb 62f 59f
1:50am 4ft 9s 5s 16 18 mph 1013.6mb 62f 58f
1:40am 4ft  -  5s 16 20 mph 1013.8mb 62f 58f
1:30am  -   -   -  16 20 mph 1013.6mb 62f 58f
1:20am  -   -   -  16 18 mph 1013.8mb 62f 58f
1:10am  -   -   -  13 16 mph 1013.9mb 62f 58f
1:00am  -   -   -  13 18 mph 1013.6mb 62f 58f
12:50am 3.5ft 6s 5s 16 18 mph 1013.8mb 62f 58f
12:40am 3.5ft  -  5s 16 18 mph 1013.8mb 62f 58f
12:30am  -   -   -  13 18 mph 1013.9mb 63f 58f
12:20am  -   -   -  11 16 mph 1013.8mb 63f 58f
12:10am  -   -   -  11 13 mph 1013.8mb 63f 58f
12:00am  -   -   -  13 18 mph 1013.6mb 63f 58f
Fri 06/23 11:50pm 3.5ft 10s 5s 16 18 mph 1013.6mb 63f 58f
11:40pm 3.5ft  -  5s 13 18 mph 1013.5mb 63f 58f
11:30pm  -   -   -  13 16 mph 1013.4mb 63f 58f
11:20pm  -   -   -  11 13 mph 1013.3mb 63f 59f
11:10pm  -   -   -  13 16 mph 1013mb 63f 59f
11:00pm  -   -   -  11 13 mph 1013.1mb 63f 60f
10:50pm 3.5ft 5s 5s 11 13 mph 1013.3mb 63f 60f
10:40pm 3.5ft  -  5s 9 13 mph 1013.3mb 63f 60f
10:30pm  -   -   -  9 11 mph 1013mb 63f 59f
10:20pm  -   -   -  9 11 mph 1013.1mb 63f 59f
10:10pm  -   -   -  9 13 mph 1013.3mb 63f 59f
10:00pm  -   -   -  11 13 mph 1013.4mb 63f 59f
9:50pm 3.5ft 10s 5s 11 16 mph 1013.4mb 63f 58f
9:40pm 3.5ft  -  5s 13 16 mph 1013.6mb 63f 58f
9:30pm  -   -   -  16 18 mph 1013.5mb 63f 58f
9:20pm  -   -   -  16 20 mph 1013.5mb 63f 59f
9:10pm  -   -   -  16 20 mph 1013.5mb - 59f
9:00pm  -   -   -  16 20 mph 1013.5mb 63f 59f
8:50pm 3.5ft 10s 5s 18 22 mph 1013.5mb 63f 59f
8:40pm 3.5ft  -  5s 16 20 mph 1013.5mb 63f 59f
8:30pm  -   -   -  16 18 mph 1013.5mb 63f 59f
8:20pm  -   -   -  13 18 mph 1013.4mb 63f 59f
8:10pm  -   -   -  13 18 mph 1013.5mb 63f 59f
8:00pm  -   -   -  13 18 mph 1013.4mb 63f 59f
7:50pm 3ft 10s 5s 16 18 mph 1013.5mb 63f 59f
7:40pm 3ft  -  5s 16 18 mph 1013.8mb 63f 59f
7:30pm  -   -   -  16 18 mph 1013.9mb 63f 59f
7:20pm  -   -   -  13 18 mph 1013.9mb 63f 59f
7:10pm  -   -   -  16 18 mph 1013.9mb 64f 59f
7:00pm  -   -   -  16 18 mph 1014mb 64f 59f
6:50pm 3ft 8s 5s 16 18 mph 1014mb 64f 59f
6:40pm 3ft  -  5s 16 18 mph 1013.8mb 64f 59f
6:30pm  -   -   -  16 18 mph 1013.8mb 64f 59f
6:20pm  -   -   -  13 18 mph 1013.5mb 64f 59f
6:10pm  -   -   -  13 18 mph 1013.5mb 64f 59f
6:00pm  -   -   -  16 20 mph 1013.4mb 64f 59f
5:50pm 3.5ft 10s 6s 13 18 mph 1013.5mb 64f 59f
5:40pm  -   -   -  13 18 mph 1013.5mb 64f 60f
5:30pm  -   -   -  13 18 mph 1013.5mb 64f 60f
5:20pm  -   -   -  13 18 mph 1013.4mb 64f 60f
5:10pm  -   -   -  13 16 mph 1013.5mb 64f 60f
5:00pm  -   -   -  13 16 mph 1013.4mb 64f 60f
4:50pm 3ft 10s 6s 13 16 mph 1013.5mb 64f 60f
4:40pm  -   -   -  13 16 mph 1013.5mb 64f 60f
4:30pm  -   -   -  13 16 mph 1013.6mb 64f 60f
4:20pm  -   -   -  13 16 mph 1013.6mb 64f 60f
4:10pm  -   -   -  13 16 mph 1013.5mb 64f 60f
4:00pm  -   -   -  13 16 mph 1013.8mb 64f 60f
3:50pm 3.5ft 11s 7s 11 16 mph 1013.9mb 64f 60f
3:40pm 3.5ft  -  7s 11 16 mph 1014mb 64f 60f
3:30pm  -   -   -  11 13 mph 1014.1mb 64f 60f
3:20pm  -   -   -  11 13 mph 1014.1mb 64f 60f
3:10pm  -   -   -  11 13 mph 1014.5mb 64f 60f
3:00pm  -   -   -  9 13 mph 1014.5mb 64f 60f
2:50pm 3ft 11s 7s 9 13 mph 1014.5mb 64f 61f
2:40pm  -   -   -  9 11 mph 1014.5mb 64f 61f
2:30pm  -   -   -  9 11 mph 1014.5mb 64f 61f
2:20pm  -   -   -  7 9 mph 1014.5mb 64f 61f
2:10pm  -   -   -  9 11 mph 1014.5mb 64f 61f
2:00pm  -   -   -  9 11 mph 1014.5mb 64f 61f
1:50pm 2.5ft 9s 7s 9 11 mph 1014.5mb 64f 60f
1:40pm  -   -   -  7 9 mph 1014.5mb 64f 61f
1:30pm  -   -   -  9 11 mph 1014.5mb 64f 60f
1:20pm  -   -   -  7 9 mph 1014.5mb 64f 60f
1:10pm  -   -   -  9 11 mph 1014.5mb 64f 60f
1:00pm  -   -   -  9 11 mph 1014.8mb 64f 60f
12:50pm 3ft 10s 7s 7 11 mph 1014.8mb 64f 60f
12:40pm 3ft  -  7s 9 11 mph 1014.6mb 64f 60f
12:30pm  -   -   -  9 11 mph 1014.5mb 64f 60f
12:20pm  -   -   -  9 11 mph 1014.5mb 63f 60f
12:10pm  -   -   -  9 11 mph 1014.5mb 63f 60f
12:00pm  -   -   -  7 9 mph 1014.5mb 63f 60f
11:50am 3ft 10s 7s 7 9 mph 1014.5mb 63f 60f
11:40am  -   -   -  7 9 mph 1014.4mb 63f 60f
11:30am  -   -   -  7 9 mph 1014.3mb 63f 60f
11:20am  -   -   -  7 9 mph 1014.3mb 63f 60f
11:10am  -   -   -  7 9 mph 1014.3mb 63f 60f
11:00am  -   -   -  7 9 mph 1014.1mb 63f 60f
10:50am 3ft 9s 7s 7 9 mph 1014mb 63f 60f
10:40am 3ft  -  7s 7 9 mph 1013.9mb 63f 60f
10:30am  -   -   -  7 9 mph 1013.9mb 63f 60f
10:20am  -   -   -  7 9 mph 1013.8mb 63f 60f
10:10am  -   -   -  7 9 mph 1013.8mb 63f 60f
10:00am  -   -   -  7 9 mph 1013.6mb 63f 60f
9:50am 3ft 11s 7s 7 9 mph 1013.6mb 63f 60f
9:40am 3ft  -  7s 7 9 mph 1013.6mb 63f 60f
9:30am  -   -   -  9 11 mph 1013.6mb 63f 60f
9:20am  -   -   -  7 11 mph 1013.8mb 63f 60f
9:10am  -   -   -  7 9 mph 1013.6mb 63f 60f
9:00am  -   -   -  7 9 mph 1013.5mb 63f 60f
8:50am 3.5ft 10s 7s 7 9 mph 1013.5mb 63f 60f
8:40am  -   -   -  7 9 mph 1013.5mb 63f 60f
8:30am  -   -   -  7 9 mph 1013.4mb 63f 60f
8:20am  -   -   -  7 9 mph 1013.4mb 63f 60f
8:10am  -   -   -  7 9 mph 1013.5mb 63f 60f
8:00am  -   -   -  9 11 mph 1013.5mb 63f 60f
7:50am 3ft 11s 7s 9 11 mph 1013.5mb 63f 59f
7:40am 3ft  -  7s 9 11 mph 1013.5mb 63f 60f
7:30am  -   -   -  9 11 mph 1013.5mb 63f 59f
7:20am  -   -   -  9 11 mph 1013.4mb 63f 59f
7:10am  -   -   -  9 11 mph 1013.5mb 63f 59f
7:00am  -   -   -  7 9 mph 1013.4mb 63f 59f
6:50am 3.5ft 9s 7s 9 11 mph 1013.3mb 63f 59f
6:40am 3.5ft  -  7s 9 11 mph 1013.1mb 63f 59f
6:30am  -   -   -  9 11 mph 1013.1mb 63f 59f
6:20am  -   -   -  9 11 mph 1013mb 63f 59f
6:10am  -   -   -  9 11 mph 1012.9mb 63f 60f
6:00am  -   -   -  9 11 mph 1012.8mb 63f 60f
5:50am 3.5ft 10s 7s 9 11 mph 1012.6mb 63f 60f
5:40am 3.5ft  -  7s 9 9 mph 1012.6mb 63f 60f
5:30am  -   -   -  9 9 mph 1012.6mb 63f 60f
5:20am  -   -   -  9 9 mph 1012.5mb 63f 60f
5:10am  -   -   -  9 11 mph 1012.5mb 63f 60f
5:00am  -   -   -  7 11 mph 1012.4mb 63f 60f
4:50am 3.5ft 10s 7s 9 11 mph 1012.4mb 63f 60f
4:40am 3.5ft  -  7s 9 11 mph 1012.4mb 63f 60f
4:30am  -   -   -  9 11 mph 1012.5mb 63f 60f
4:20am  -   -   -  9 11 mph 1012.5mb 63f 60f
4:10am  -   -   -  9 11 mph 1012.4mb 63f 60f
4:00am  -   -   -  7 9 mph 1012.3mb 63f 60f
3:50am 3.5ft 11s 7s 7 9 mph 1012.4mb 63f 60f
3:40am  -   -   -  4 9 mph 1012.4mb 63f 61f
3:30am  -   -   -  2 4 mph 1012.3mb 63f 61f
3:20am  -   -   -  2 4 mph 1012.3mb 63f 61f
3:10am  -   -   -  2 2 mph 1012.4mb 63f 61f
3:00am  -   -   -  2 2 mph 1012.4mb 63f 61f
2:50am 3.5ft 9s 7s 2 2 mph 1012.4mb 63f 61f
2:40am 3.5ft  -  7s 2 4 mph 1012.3mb 63f 61f
2:30am  -   -   -   -  2 mph 1012.3mb 63f 61f
2:20am  -   -   -  2 2 mph 1012.4mb 63f 60f
2:10am  -   -   -  2 2 mph 1012.4mb 63f 60f
2:00am  -   -   -   -  2 mph 1012.5mb - 60f
1:50am 3.5ft 9s 7s  -  2 mph 1012.5mb 63f 60f
1:40am 3.5ft  -  7s  -  2 mph 1012.5mb 63f 60f
1:30am  -   -   -  2 4 mph 1012.5mb 63f 60f
1:20am  -   -   -  2 4 mph 1012.5mb 63f 60f
1:10am  -   -   -  2 4 mph 1012.5mb 63f 60f
1:00am  -   -   -   -  4 mph 1012.5mb 63f 60f
12:50am 4ft 11s 7s  -  2 mph 1012.5mb 63f 60f
12:40am 4ft  -  7s  -  2 mph 1012.4mb 63f 60f
12:30am  -   -   -   -  2 mph 1012.5mb 63f 60f
12:20am  -   -   -   -  4 mph 1012.3mb 63f 60f
12:10am  -   -   -   -  2 mph 1012.3mb - -
12:00am  -   -   -  2 2 mph 1012.3mb 63f 60f
Thu 06/22 11:50pm 4ft 9s 7s 2 2 mph 1012.3mb 63f 60f
11:40pm  -   -   -  2 4 mph 1012.3mb 63f 60f
11:30pm  -   -   -  2 4 mph 1012.1mb 63f 60f
11:20pm  -   -   -  2 4 mph 1012mb 63f 60f
11:10pm  -   -   -  2 4 mph 1012.1mb 63f 60f
11:00pm  -   -   -  2 4 mph 1012.1mb 63f 60f
10:50pm 4ft 10s 7s 2 4 mph 1012mb 63f 60f
10:40pm 4ft  -  7s 4 7 mph 1012mb 63f 60f
10:30pm  -   -   -  4 7 mph 1011.8mb 63f 60f
10:20pm  -   -   -  4 7 mph 1011.8mb 63f 60f
10:10pm  -   -   -  4 7 mph 1011.8mb 63f 60f
10:00pm  -   -   -  4 7 mph 1011.6mb 63f 60f
9:50pm 3.5ft 11s 7s 7 7 mph 1011.5mb 63f 59f
9:40pm  -   -   -  4 7 mph 1011.4mb 63f 60f
9:30pm  -   -   -  7 9 mph 1011.3mb 63f 60f
9:20pm  -   -   -  7 9 mph 1011.3mb 63f 60f
9:10pm  -   -   -  7 9 mph 1011.1mb 63f 60f
9:00pm  -   -   -  7 9 mph 1011.1mb 63f 60f
8:50pm 3.5ft 10s 7s 9 11 mph 1011mb 63f 60f
8:40pm  -   -   -  9 11 mph 1011mb 63f 60f
8:30pm  -   -   -  7 9 mph 1011mb 63f 60f
8:20pm  -   -   -  9 9 mph 1010.9mb 63f 60f
8:10pm  -   -   -  9 9 mph 1010.9mb 63f 60f
8:00pm  -   -   -  9 11 mph 1010.6mb 64f 60f
7:50pm 3.5ft 10s 7s 9 11 mph 1010.5mb 64f 60f
7:40pm  -   -   -  9 11 mph 1010.5mb 64f 60f
7:30pm  -   -   -  9 11 mph 1010.5mb 64f 60f
7:20pm  -   -   -  9 11 mph 1010.4mb 64f 60f
7:10pm  -   -   -  9 11 mph 1010.3mb 64f 60f
7:00pm  -   -   -  9 11 mph 1010.1mb 64f 61f
6:50pm 3.5ft 10s 7s 9 9 mph 1010.1mb 64f 61f
6:40pm 3.5ft  -  7s 9 11 mph 1010.1mb 64f 61f
6:30pm  -   -   -  9 11 mph 1010mb 64f 61f
6:20pm  -   -   -  9 11 mph 1010.1mb 64f 61f
6:10pm  -   -   -  9 11 mph 1010.1mb 64f 61f
6:00pm  -   -   -  9 11 mph 1010mb 64f -
5:50pm 3.5ft 11s 7s 9 11 mph 1010.3mb 64f 61f
5:40pm 3.5ft  -  7s 9 11 mph 1010.3mb 64f 61f
5:30pm  -   -   -  9 11 mph 1010.1mb 64f 62f
5:20pm  -   -   -  7 9 mph 1010.3mb 64f 62f
5:10pm  -   -   -  7 9 mph 1010.4mb 64f 62f
5:00pm  -   -   -  7 9 mph 1010.4mb 64f 62f
4:50pm 3.5ft 8s 7s 4 7 mph 1010.4mb 64f 62f
4:40pm 3.5ft  -  7s 4 7 mph 1010.4mb 64f 62f
4:30pm  -   -   -  4 7 mph 1010.4mb 64f 62f
4:20pm  -   -   -  4 7 mph 1010.4mb 64f 62f
4:10pm  -   -   -  7 9 mph 1010.4mb 64f 62f
4:00pm  -   -   -  4 7 mph 1010.5mb 64f 62f
3:50pm 4ft 9s 7s 4 7 mph 1010.6mb 64f 63f
3:40pm  -   -   -  7 9 mph 1010.8mb 64f 64f
3:30pm  -   -   -  7 9 mph 1010.9mb 64f 63f
3:20pm  -   -   -  7 9 mph 1010.9mb 64f 63f
3:10pm  -   -   -  7 11 mph 1010.9mb 64f 63f
3:00pm  -   -   -  9 11 mph 1011mb 64f 63f
2:50pm 3.5ft 9s 7s 9 11 mph 1011mb 63f 63f
2:40pm 3.5ft  -  7s 7 9 mph 1011mb 63f 63f
2:30pm  -   -   -  7 9 mph 1011mb 63f 63f
2:20pm  -   -   -  7 9 mph 1011mb 63f 63f
2:10pm  -   -   -  7 11 mph 1011mb 63f 63f
2:00pm  -   -   -  7 11 mph 1011mb 63f 63f
1:50pm 3.5ft 10s 7s 9 11 mph 1011mb 63f 63f
1:40pm 3.5ft  -  7s 7 9 mph 1011.1mb 63f 63f
1:30pm  -   -   -  7 9 mph 1011.1mb 63f 63f
1:20pm  -   -   -  7 9 mph 1011.1mb 63f 63f
1:10pm  -   -   -  7 9 mph 1011.1mb 63f 63f
1:00pm  -   -   -  7 9 mph 1011.3mb 63f 63f
12:50pm 3.5ft 10s 7s 7 9 mph 1011.4mb 63f 62f
12:40pm 3.5ft  -  7s 7 9 mph 1011.4mb 63f 62f
12:30pm  -   -   -  7 9 mph 1011.4mb 63f 62f
12:20pm  -   -   -  7 9 mph 1011.3mb 63f 62f
12:10pm  -   -   -  7 9 mph 1011.1mb 63f 62f